Lachine, Canada
Current Conditions -  °F | °C
As of 9:00 PM on Friday 19 Dec 2014 (Local Time) from CYUL Reporting Station
Clear Clear  
Wind Chill:   Ceiling: Unl
Heat Index: 16°   Visibility: 15mi
Dew Point: 10°   Wind: 8mph
Humidity: 79%   Direction: 230°SW
Pressure: 30.23"   Gusts: NA
Location:  45.43°N, 73.68°W
Report Text: CYUL 200200Z 23007KT 15SM SKC M09/M12 A3023 RMK SLP239
Loading
Personal Weather Stations






























Interactive Weather Map New forecast layout! Learn more

10-Day Weather Forecast

Advertisements
Track Severe Weather on mobile